Time;durP1;ratioP1;P1;durP2;ratioP2;P2;SDS_P1;SDS_P2;PMS_P1;PMS_P2;Temp;Humidity;BMP_temperature;BMP_pressure;BME280_temperature;BME280_humidity;BME280_pressure;Samples;Min_cycle;Max_cycle;Signal;HPM_P1;HPM_P2
2022/01/28 00:04:51;;;;;;;9.47;4.13;;;0.90;99.90;;;;;;5012921;28;20185;-59
2022/01/28 00:07:17;;;;;;;8.47;4.23;;;0.90;99.90;;;;;;4993997;28;20215;-59
2022/01/28 00:09:43;;;;;;;6.03;3.43;;;1.00;99.90;;;;;;5013182;28;20536;-58
2022/01/28 00:12:10;;;;;;;7.43;3.73;;;1.10;99.90;;;;;;5012659;28;20182;-61
2022/01/28 00:15:04;;;;;;;8.23;4.07;;;1.10;99.90;;;;;;5012819;28;20265;-59
2022/01/28 00:18:02;;;;;;;8.63;3.57;;;1.10;99.90;;;;;;5012476;28;20277;-57
2022/01/28 00:39:24;;;;;;;7.17;3.50;;;1.40;99.90;;;;;;5012236;28;20198;-58
2022/01/28 00:41:50;;;;;;;9.43;3.90;;;1.50;99.90;;;;;;5012557;28;20179;-59
2022/01/28 00:44:16;;;;;;;8.40;3.97;;;1.50;99.90;;;;;;5012398;28;20206;-59
2022/01/28 00:46:42;;;;;;;7.30;3.33;;;1.50;99.90;;;;;;5011953;28;20207;-57
2022/01/28 00:49:07;;;;;;;7.07;3.13;;;1.50;99.90;;;;;;5012022;28;20188;-67
2022/01/28 00:51:33;;;;;;;7.50;3.77;;;1.50;99.90;;;;;;5012342;28;20179;-57
2022/01/28 00:53:59;;;;;;;8.00;3.70;;;1.60;99.90;;;;;;5012218;28;20211;-56
2022/01/28 00:56:24;;;;;;;8.03;3.43;;;1.50;99.90;;;;;;5012032;28;20269;-57
2022/01/28 00:58:50;;;;;;;8.40;3.60;;;1.50;99.90;;;;;;5012105;28;20281;-59
2022/01/28 01:01:16;;;;;;;7.00;3.27;;;1.50;99.90;;;;;;5011615;28;20193;-60
2022/01/28 01:03:42;;;;;;;7.60;3.27;;;1.50;99.90;;;;;;4994474;28;20598;-59
2022/01/28 01:06:07;;;;;;;7.53;3.77;;;1.50;99.90;;;;;;5012292;28;20218;-62
2022/01/28 01:08:33;;;;;;;9.90;4.40;;;1.40;99.90;;;;;;5011378;28;20190;-57
2022/01/28 01:10:59;;;;;;;7.70;3.70;;;1.40;99.90;;;;;;5012061;28;20184;-58
2022/01/28 01:13:25;;;;;;;8.80;3.93;;;1.20;99.90;;;;;;5006838;28;20187;-57
2022/01/28 01:15:56;;;;;;;10.23;4.90;;;1.10;99.90;;;;;;4992298;28;20189;-56
2022/01/28 01:18:39;;;;;;;9.67;4.67;;;1.00;99.90;;;;;;4992226;28;20716;-60
2022/01/28 01:21:09;;;;;;;8.10;4.43;;;0.80;99.90;;;;;;4992324;28;20285;-57
2022/01/28 01:23:38;;;;;;;9.23;4.43;;;0.70;99.90;;;;;;4992237;28;20199;-56
2022/01/28 01:26:09;;;;;;;9.50;4.60;;;0.60;99.90;;;;;;4992144;28;20586;-57
2022/01/28 01:28:38;;;;;;;8.57;4.27;;;0.60;99.90;;;;;;4992280;28;20227;-58
2022/01/28 01:31:07;;;;;;;12.13;4.40;;;0.60;99.90;;;;;;4991074;28;20199;-56
2022/01/28 01:33:40;;;;;;;8.20;4.20;;;0.70;99.90;;;;;;4991753;28;20194;-57
2022/01/28 01:36:06;;;;;;;9.40;4.63;;;0.70;99.90;;;;;;4992355;28;20709;-57
2022/01/28 01:38:35;;;;;;;8.97;4.40;;;0.80;99.90;;;;;;4991661;28;20277;-54
2022/01/28 01:41:04;;;;;;;8.80;4.63;;;0.80;99.90;;;;;;4992375;28;20221;-57
2022/01/28 01:43:46;;;;;;;8.30;3.73;;;0.90;99.90;;;;;;4991918;28;20192;-55
2022/01/28 01:54:40;;;;;;;9.03;4.60;;;1.20;99.90;;;;;;4950791;29;20252;-57
2022/01/28 01:57:09;;;;;;;8.70;4.30;;;1.20;99.90;;;;;;4951041;29;20231;-57
2022/01/28 01:59:35;;;;;;;10.20;5.27;;;1.30;99.90;;;;;;4961089;28;20540;-59
2022/01/28 02:02:01;;;;;;;10.53;5.97;;;1.30;99.90;;;;;;4972697;28;20667;-56
2022/01/28 02:04:27;;;;;;;8.77;5.00;;;1.30;99.90;;;;;;4971935;28;20212;-57
2022/01/28 02:06:53;;;;;;;10.50;5.00;;;1.40;99.90;;;;;;4972540;28;20254;-56
2022/01/28 02:09:19;;;;;;;8.90;5.40;;;1.40;99.90;;;;;;4972248;28;20253;-55
2022/01/28 02:11:44;;;;;;;10.67;5.10;;;1.40;99.90;;;;;;4972431;28;20192;-56
2022/01/28 02:14:10;;;;;;;8.10;4.20;;;1.40;99.90;;;;;;4983074;28;20199;-57
2022/01/28 02:16:36;;;;;;;10.07;4.73;;;1.50;99.90;;;;;;4991751;28;20207;-57
2022/01/28 02:19:02;;;;;;;9.70;5.13;;;1.60;99.90;;;;;;4992850;28;20199;-56
2022/01/28 02:21:33;;;;;;;8.67;4.47;;;1.60;99.90;;;;;;4994973;28;20175;-57
2022/01/28 02:24:02;;;;;;;11.73;4.80;;;1.60;99.90;;;;;;4995388;28;20655;-61
2022/01/28 02:26:29;;;;;;;8.70;4.50;;;1.50;99.90;;;;;;4994973;28;20230;-56
2022/01/28 02:28:57;;;;;;;7.97;4.03;;;1.50;99.90;;;;;;4995059;28;20193;-58
2022/01/28 02:31:26;;;;;;;8.47;3.97;;;1.50;99.90;;;;;;4993785;28;20188;-57
2022/01/28 02:33:55;;;;;;;8.67;3.87;;;1.50;99.90;;;;;;4995102;28;20250;-57
2022/01/28 02:36:21;;;;;;;8.67;4.27;;;1.40;99.90;;;;;;4994876;28;20204;-59
2022/01/28 02:38:47;;;;;;;10.53;3.53;;;1.40;99.90;;;;;;4994963;28;20548;-57
2022/01/28 02:41:13;;;;;;;5.80;3.23;;;1.50;99.90;;;;;;4994835;28;20204;-67
2022/01/28 02:43:45;;;;;;;6.80;3.60;;;1.50;99.90;;;;;;4994899;28;20190;-58
2022/01/28 02:46:14;;;;;;;5.87;3.30;;;1.60;99.90;;;;;;4994693;28;20219;-60
2022/01/28 02:48:50;;;;;;;7.33;3.30;;;1.60;99.90;;;;;;4993669;28;20224;-58
2022/01/28 02:51:19;;;;;;;6.07;3.27;;;1.70;99.90;;;;;;4994762;28;20178;-58
2022/01/28 02:53:57;;;;;;;6.43;3.27;;;1.70;99.90;;;;;;4994456;28;20872;-55
2022/01/28 02:58:50;;;;;;;7.43;3.20;;;1.80;99.90;;;;;;5014350;28;20220;-57
2022/01/28 03:01:18;;;;;;;7.73;3.30;;;1.70;99.90;;;;;;5014117;28;20638;-62
2022/01/28 03:03:45;;;;;;;6.00;2.97;;;1.80;99.90;;;;;;5013950;28;20253;-57
2022/01/28 03:06:16;;;;;;;5.83;2.87;;;1.80;99.90;;;;;;5014089;28;20211;-59
2022/01/28 03:08:51;;;;;;;6.00;3.00;;;1.80;99.90;;;;;;5013982;28;20180;-59
2022/01/28 03:14:00;;;;;;;6.70;3.60;;;1.80;99.90;;;;;;5005924;28;20210;-59
2022/01/28 03:16:29;;;;;;;6.00;3.10;;;1.80;99.90;;;;;;4999249;28;20278;-60
2022/01/28 03:19:00;;;;;;;10.23;5.23;;;1.80;99.90;;;;;;4996281;28;20278;-59
2022/01/28 03:23:59;;;;;;;6.23;3.47;;;1.80;99.90;;;;;;5013810;28;20187;-56
2022/01/28 03:26:26;;;;;;;5.80;3.13;;;1.70;99.90;;;;;;5013401;28;20226;-58
2022/01/28 03:28:52;;;;;;;5.23;2.80;;;1.70;99.90;;;;;;4980302;28;20334;-60
2022/01/28 03:31:18;;;;;;;6.57;3.57;;;1.70;99.90;;;;;;5012594;28;20271;-58
2022/01/28 03:33:44;;;;;;;5.50;2.67;;;1.70;99.90;;;;;;5013570;28;20697;-58
2022/01/28 03:36:12;;;;;;;5.87;2.73;;;1.60;99.90;;;;;;5013279;28;20196;-57
2022/01/28 03:38:40;;;;;;;5.40;2.73;;;1.70;99.90;;;;;;5013035;28;20634;-59
2022/01/28 03:41:12;;;;;;;6.63;2.50;;;1.60;99.90;;;;;;5013239;28;20207;-57
2022/01/28 03:43:38;;;;;;;4.73;2.67;;;1.60;99.90;;;;;;5012797;28;20643;-58
2022/01/28 03:46:04;;;;;;;4.73;2.57;;;1.60;99.90;;;;;;5013163;28;20198;-58
2022/01/28 03:48:30;;;;;;;5.93;2.70;;;1.60;99.90;;;;;;4995428;28;20184;-56
2022/01/28 03:50:56;;;;;;;4.43;2.57;;;1.60;99.90;;;;;;4995519;28;20605;-57
2022/01/28 03:53:21;;;;;;;4.67;2.43;;;1.60;99.90;;;;;;5012825;28;20179;-57
2022/01/28 03:55:47;;;;;;;5.53;2.90;;;1.70;99.90;;;;;;4995272;28;20241;-57
2022/01/28 03:58:16;;;;;;;7.80;3.67;;;1.60;99.90;;;;;;5012954;28;20187;-59
2022/01/28 04:00:42;;;;;;;17.30;5.03;;;1.60;99.90;;;;;;4978829;28;20283;-57
2022/01/28 04:13:54;;;;;;;4.03;2.30;;;1.90;99.90;;;;;;4943828;29;20357;-58
2022/01/28 04:18:49;;;;;;;4.17;2.43;;;2.00;99.90;;;;;;4955727;28;20191;-58
2022/01/28 04:21:15;;;;;;;4.93;2.43;;;2.10;99.90;;;;;;4992637;28;20184;-57
2022/01/28 04:23:41;;;;;;;4.73;2.40;;;2.10;99.90;;;;;;4992486;28;20537;-57
2022/01/28 04:26:07;;;;;;;5.23;2.37;;;2.20;99.90;;;;;;4992911;28;20492;-56
2022/01/28 04:28:33;;;;;;;4.03;2.07;;;2.20;99.90;;;;;;4992787;28;20196;-56
2022/01/28 04:30:59;;;;;;;3.97;2.20;;;2.20;99.90;;;;;;4975240;28;20199;-56
2022/01/28 04:33:24;;;;;;;5.17;2.10;;;2.20;99.90;;;;;;4992513;28;20176;-59
2022/01/28 04:35:53;;;;;;;5.53;2.20;;;2.20;99.90;;;;;;4992290;28;20220;-57
2022/01/28 04:41:05;;;;;;;3.70;2.00;;;2.20;99.90;;;;;;4984453;28;20206;-57
2022/01/28 04:43:49;;;;;;;4.87;2.40;;;2.20;99.90;;;;;;4991462;28;20196;-55
2022/01/28 04:46:28;;;;;;;4.30;2.20;;;2.20;99.90;;;;;;4977597;28;20223;-58
2022/01/28 04:49:08;;;;;;;5.27;2.33;;;2.20;99.90;;;;;;4974852;28;20258;-59
2022/01/28 04:57:23;;;;;;;5.57;2.47;;;2.20;99.90;;;;;;4992465;28;20222;-57
2022/01/28 05:07:53;;;;;;;2.90;1.87;;;2.10;99.90;;;;;;4974707;28;20226;-60
2022/01/28 05:15:47;;;;;;;3.83;2.57;;;2.10;99.90;;;;;;5011122;28;20190;-58
2022/01/28 05:28:58;;;;;;;5.50;3.20;;;2.20;99.90;;;;;;5011399;28;20193;-57
2022/01/28 05:31:24;;;;;;;5.47;3.10;;;2.20;99.90;;;;;;5010458;28;20282;-60
2022/01/28 05:33:50;;;;;;;4.60;2.60;;;2.20;99.90;;;;;;5011086;28;20600;-57
2022/01/28 05:36:16;;;;;;;8.37;4.00;;;2.10;99.90;;;;;;4992915;28;20202;-58
2022/01/28 05:38:42;;;;;;;6.27;3.40;;;2.00;99.90;;;;;;4992863;28;20647;-60
2022/01/28 05:41:08;;;;;;;5.73;2.80;;;1.90;99.90;;;;;;4993045;28;20643;-58
2022/01/28 05:43:34;;;;;;;5.60;3.30;;;1.90;99.90;;;;;;5010863;28;20183;-61
2022/01/28 05:45:59;;;;;;;7.03;3.50;;;1.80;99.90;;;;;;5010503;28;20203;-60
2022/01/28 05:48:25;;;;;;;6.13;3.30;;;1.80;99.90;;;;;;4992677;28;20192;-60
2022/01/28 05:50:51;;;;;;;6.20;2.93;;;1.80;99.90;;;;;;5010555;28;20203;-58
2022/01/28 05:53:17;;;;;;;8.70;3.57;;;1.70;99.90;;;;;;5010747;28;20550;-56
2022/01/28 05:55:43;;;;;;;8.10;3.57;;;1.70;99.90;;;;;;5014358;28;20227;-56
2022/01/28 05:58:08;;;;;;;6.03;3.40;;;1.80;99.90;;;;;;4996606;28;20187;-57
2022/01/28 06:00:34;;;;;;;7.10;3.20;;;1.90;99.90;;;;;;5013909;28;20183;-58
2022/01/28 06:03:00;;;;;;;7.57;3.57;;;1.90;99.90;;;;;;5014618;28;20184;-56
2022/01/28 06:05:31;;;;;;;5.07;3.27;;;1.90;99.90;;;;;;5014101;28;20187;-56
2022/01/28 06:07:58;;;;;;;6.33;3.40;;;1.90;99.90;;;;;;5014007;28;20215;-57
2022/01/28 06:10:24;;;;;;;5.30;2.73;;;1.90;99.90;;;;;;5014316;28;20188;-56
2022/01/28 06:12:50;;;;;;;9.50;3.20;;;1.90;99.90;;;;;;5014003;28;20266;-57
2022/01/28 06:15:16;;;;;;;6.30;3.03;;;1.90;99.90;;;;;;4992986;28;20679;-56
2022/01/28 06:17:42;;;;;;;6.77;3.40;;;2.00;99.90;;;;;;4994160;28;20215;-56
2022/01/28 06:20:10;;;;;;;6.40;2.70;;;2.00;99.90;;;;;;4994746;28;20540;-59
2022/01/28 06:22:40;;;;;;;6.90;3.07;;;2.00;99.90;;;;;;4994149;28;20188;-56
2022/01/28 06:25:07;;;;;;;6.87;3.30;;;2.00;99.90;;;;;;4990406;28;20203;-53
2022/01/28 06:27:34;;;;;;;7.17;3.13;;;2.00;99.90;;;;;;5009790;28;20689;-57
2022/01/28 06:30:00;;;;;;;7.73;3.77;;;2.00;99.90;;;;;;5001680;28;20254;-56
2022/01/28 06:32:26;;;;;;;9.80;4.40;;;2.00;99.90;;;;;;5013358;28;20203;-59
2022/01/28 06:34:51;;;;;;;7.70;4.20;;;2.00;99.90;;;;;;5006217;28;20202;-57
2022/01/28 06:37:17;;;;;;;8.10;4.33;;;1.90;99.90;;;;;;5010433;28;20196;-56
2022/01/28 06:39:43;;;;;;;6.67;3.77;;;1.90;99.90;;;;;;4994272;28;20195;-58
2022/01/28 06:42:09;;;;;;;6.93;3.60;;;1.90;99.90;;;;;;5012067;28;20188;-60
2022/01/28 06:44:35;;;;;;;7.23;4.37;;;1.90;99.90;;;;;;5004462;28;20216;-56
2022/01/28 06:47:01;;;;;;;8.83;4.03;;;1.90;99.90;;;;;;4995311;28;20199;-56
2022/01/28 06:49:26;;;;;;;11.17;5.63;;;1.90;99.90;;;;;;5011965;28;20191;-60
2022/01/28 06:51:52;;;;;;;11.57;6.43;;;1.90;99.90;;;;;;5003721;28;20199;-59
2022/01/28 06:54:18;;;;;;;15.60;8.73;;;1.90;99.90;;;;;;4994368;28;20274;-60
2022/01/28 06:56:44;;;;;;;15.67;6.73;;;1.90;99.90;;;;;;5008221;28;20192;-57
2022/01/28 06:59:11;;;;;;;14.47;6.77;;;1.90;99.90;;;;;;4993584;28;20187;-61
2022/01/28 07:01:37;;;;;;;12.47;5.67;;;2.00;99.90;;;;;;5012744;28;20281;-62
2022/01/28 07:04:03;;;;;;;12.30;6.07;;;2.10;99.90;;;;;;5004150;28;20216;-63
2022/01/28 07:06:29;;;;;;;12.03;5.67;;;2.20;99.90;;;;;;5006538;28;20226;-62
2022/01/28 07:08:55;;;;;;;14.70;7.33;;;2.30;99.90;;;;;;4989035;28;20200;-62
2022/01/28 07:11:20;;;;;;;9.63;4.40;;;2.40;99.90;;;;;;5005965;28;20586;-61
2022/01/28 07:13:46;;;;;;;10.50;4.93;;;2.50;99.90;;;;;;5005707;28;20232;-60
2022/01/28 07:16:12;;;;;;;20.03;9.27;;;2.70;99.90;;;;;;5006065;28;20249;-64
2022/01/28 07:18:38;;;;;;;16.70;7.83;;;2.90;99.90;;;;;;5006943;28;20227;-61
2022/01/28 07:21:03;;;;;;;12.33;5.50;;;3.00;99.90;;;;;;4993545;28;20183;-59
2022/01/28 07:23:29;;;;;;;24.87;8.40;;;3.00;99.90;;;;;;5001113;28;20208;-58
2022/01/28 07:25:55;;;;;;;11.73;5.37;;;3.20;99.90;;;;;;5002918;28;20203;-59
2022/01/28 07:28:23;;;;;;;31.87;12.53;;;3.30;99.90;;;;;;4982829;28;20243;-57
2022/01/28 07:30:49;;;;;;;6.33;3.43;;;3.30;99.90;;;;;;4994749;28;20274;-60
2022/01/28 07:33:15;;;;;;;9.23;4.23;;;3.30;99.90;;;;;;5012091;28;20265;-58
2022/01/28 07:35:41;;;;;;;9.23;4.77;;;3.20;99.90;;;;;;4995033;28;20218;-57
2022/01/28 07:38:07;;;;;;;9.63;5.37;;;3.20;99.90;;;;;;5012470;28;20184;-58
2022/01/28 07:40:33;;;;;;;11.50;5.00;;;3.20;99.90;;;;;;4994545;28;20222;-60
2022/01/28 07:42:58;;;;;;;9.00;4.73;;;3.20;99.90;;;;;;5012266;28;20211;-60
2022/01/28 07:45:25;;;;;;;11.60;5.27;;;3.30;99.90;;;;;;5012169;28;20217;-60
2022/01/28 07:47:51;;;;;;;11.47;4.67;;;3.40;99.90;;;;;;5012056;28;20219;-60
2022/01/28 07:50:17;;;;;;;14.97;5.07;;;3.40;99.90;;;;;;4994156;28;20180;-57
2022/01/28 07:52:43;;;;;;;11.47;5.73;;;3.40;99.90;;;;;;4991956;28;20213;-58
2022/01/28 07:55:11;;;;;;;15.37;4.97;;;3.30;99.90;;;;;;4992615;28;20228;-58
2022/01/28 07:57:37;;;;;;;15.67;6.10;;;3.30;99.90;;;;;;5009856;28;20271;-60
2022/01/28 08:00:05;;;;;;;15.50;6.23;;;3.20;99.90;;;;;;5010252;28;20698;-55
2022/01/28 08:02:31;;;;;;;11.47;4.70;;;3.10;99.90;;;;;;4992087;28;20721;-60
2022/01/28 08:04:57;;;;;;;8.37;4.50;;;3.20;99.90;;;;;;5010064;28;20198;-60
2022/01/28 08:07:22;;;;;;;10.93;4.93;;;3.40;99.90;;;;;;5011404;28;20322;-58
2022/01/28 08:09:48;;;;;;;11.77;5.17;;;3.60;99.90;;;;;;5011785;28;20200;-58
2022/01/28 08:12:14;;;;;;;10.10;5.07;;;3.80;99.90;;;;;;5011600;28;20269;-60
2022/01/28 08:14:40;;;;;;;13.83;4.87;;;4.20;99.90;;;;;;5011552;28;20251;-58
2022/01/28 08:17:06;;;;;;;14.77;4.90;;;4.60;99.90;;;;;;5011866;28;20189;-57
2022/01/28 08:19:31;;;;;;;21.77;5.77;;;4.80;99.90;;;;;;5011410;28;20197;-62
2022/01/28 08:21:57;;;;;;;15.13;4.83;;;5.00;99.90;;;;;;5011254;28;20201;-61
2022/01/28 08:24:23;;;;;;;7.97;4.93;;;5.10;99.90;;;;;;5011226;28;20186;-57
2022/01/28 08:26:49;;;;;;;10.97;4.30;;;4.90;99.90;;;;;;4976788;28;20264;-59
2022/01/28 08:29:16;;;;;;;10.33;4.40;;;4.90;99.90;;;;;;5011483;28;20192;-59
2022/01/28 08:31:42;;;;;;;12.83;4.57;;;4.90;99.90;;;;;;5011713;28;20185;-60
2022/01/28 08:34:08;;;;;;;22.20;5.27;;;4.70;99.90;;;;;;4993849;28;20190;-61
2022/01/28 08:36:34;;;;;;;14.37;4.23;;;4.60;99.90;;;;;;5011318;28;20190;-60
2022/01/28 08:39:00;;;;;;;12.50;4.50;;;4.60;99.90;;;;;;4994168;28;20193;-58
2022/01/28 08:41:26;;;;;;;15.67;5.03;;;4.70;99.90;;;;;;5011537;28;20261;-58
2022/01/28 08:43:52;;;;;;;17.57;5.63;;;4.70;99.90;;;;;;5011256;28;20197;-57
2022/01/28 08:46:18;;;;;;;7.03;3.87;;;4.90;99.90;;;;;;5011350;28;20180;-58
2022/01/28 08:48:44;;;;;;;10.47;4.73;;;5.10;99.90;;;;;;4993305;28;20558;-60
2022/01/28 08:51:10;;;;;;;12.53;4.37;;;5.00;99.90;;;;;;5011177;28;20187;-58
2022/01/28 08:53:38;;;;;;;13.77;4.40;;;5.00;99.90;;;;;;5011113;28;20204;-61
2022/01/28 08:56:04;;;;;;;18.10;5.00;;;5.10;99.90;;;;;;5011349;28;20245;-62
2022/01/28 08:58:29;;;;;;;8.73;3.53;;;5.20;99.90;;;;;;5011479;28;20519;-56
2022/01/28 09:00:55;;;;;;;22.07;5.57;;;5.00;99.90;;;;;;5011021;28;20185;-62
2022/01/28 09:03:22;;;;;;;8.00;3.40;;;4.90;99.90;;;;;;5011283;28;20652;-59
2022/01/28 09:05:48;;;;;;;9.43;4.00;;;4.60;99.90;;;;;;4993387;28;20649;-60
2022/01/28 09:08:14;;;;;;;9.50;3.67;;;4.60;99.90;;;;;;4993276;28;20221;-59
2022/01/28 09:10:57;;;;;;;8.77;4.17;;;4.70;99.90;;;;;;4992933;28;20193;-61
2022/01/28 09:13:27;;;;;;;35.33;5.43;;;4.90;99.90;;;;;;5011026;28;20178;-60
2022/01/28 09:15:54;;;;;;;3.73;2.40;;;4.90;99.90;;;;;;5011094;28;20226;-59
2022/01/28 09:18:21;;;;;;;4.30;2.30;;;4.90;99.90;;;;;;5011294;28;20190;-60
2022/01/28 09:20:47;;;;;;;5.50;2.47;;;4.90;99.90;;;;;;5010787;28;20187;-58
2022/01/28 09:23:13;;;;;;;8.00;2.70;;;4.80;99.90;;;;;;4993324;28;20182;-57
2022/01/28 09:25:39;;;;;;;4.70;2.30;;;4.80;99.90;;;;;;4993141;28;20654;-61
2022/01/28 09:28:05;;;;;;;3.50;2.00;;;4.90;99.90;;;;;;5010779;28;20219;-61
2022/01/28 09:30:32;;;;;;;5.60;2.03;;;4.70;99.90;;;;;;5014489;28;20200;-60
2022/01/28 09:32:58;;;;;;;2.97;1.40;;;4.50;99.90;;;;;;4980373;28;20189;-60
2022/01/28 09:35:24;;;;;;;2.63;1.67;;;4.60;99.90;;;;;;5014508;28;20241;-57
2022/01/28 09:37:51;;;;;;;7.30;2.13;;;4.40;99.90;;;;;;4996675;28;20199;-60
2022/01/28 09:40:17;;;;;;;3.90;2.10;;;4.20;99.90;;;;;;4990600;28;20511;-60
2022/01/28 09:42:45;;;;;;;4.50;2.13;;;4.20;99.90;;;;;;4994442;28;20186;-57
2022/01/28 09:45:20;;;;;;;6.57;2.57;;;4.20;99.90;;;;;;4994777;28;20220;-59
2022/01/28 09:47:46;;;;;;;4.90;2.57;;;4.20;99.90;;;;;;4994013;28;20220;-60
2022/01/28 09:50:13;;;;;;;7.17;2.77;;;4.10;99.90;;;;;;4994652;28;20540;-58
2022/01/28 09:52:39;;;;;;;4.90;2.93;;;4.10;99.90;;;;;;4976447;28;20244;-59
2022/01/28 09:55:06;;;;;;;5.57;2.70;;;4.10;99.90;;;;;;4994714;28;20221;-59
2022/01/28 09:57:32;;;;;;;7.53;3.33;;;4.00;99.90;;;;;;4976712;28;20194;-58
2022/01/28 09:59:58;;;;;;;9.10;2.57;;;4.00;99.90;;;;;;4993991;28;20554;-57
2022/01/28 10:02:54;;;;;;;6.30;3.00;;;3.80;99.90;;;;;;4976275;28;20190;-58
2022/01/28 10:05:25;;;;;;;5.20;2.50;;;3.70;99.90;;;;;;4994303;28;20186;-57
2022/01/28 10:08:06;;;;;;;6.03;2.60;;;3.50;99.90;;;;;;4993736;28;20694;-58
2022/01/28 10:11:14;;;;;;;5.73;3.37;;;3.40;99.90;;;;;;4994576;28;20186;-58
2022/01/28 10:13:52;;;;;;;6.20;3.70;;;3.20;99.90;;;;;;4983172;28;20501;-55
2022/01/28 10:16:22;;;;;;;5.70;2.80;;;3.40;99.90;;;;;;4997396;28;20180;-58
2022/01/28 10:18:56;;;;;;;8.97;3.57;;;3.50;99.90;;;;;;5013074;28;20179;-56
2022/01/28 10:21:36;;;;;;;3.73;2.70;;;3.60;99.90;;;;;;5013644;28;20183;-60
2022/01/28 10:24:32;;;;;;;9.23;4.33;;;3.60;99.90;;;;;;5012765;28;20187;-61
2022/01/28 10:27:06;;;;;;;14.60;4.77;;;3.50;99.90;;;;;;5012607;28;20243;-57
2022/01/28 10:29:34;;;;;;;9.70;4.57;;;3.30;99.90;;;;;;5013811;28;20179;-57
2022/01/28 10:32:02;;;;;;;12.27;6.47;;;3.20;99.90;;;;;;5013462;28;20192;-57
2022/01/28 10:34:35;;;;;;;6.60;3.33;;;3.30;99.90;;;;;;4996003;28;20534;-58
2022/01/28 10:37:16;;;;;;;6.37;3.50;;;3.20;99.90;;;;;;5013639;28;20185;-56
2022/01/28 10:39:45;;;;;;;12.13;6.70;;;3.40;99.90;;;;;;5011118;28;20195;-59
2022/01/28 10:42:14;;;;;;;9.50;4.93;;;3.60;99.90;;;;;;4992929;28;20176;-59
2022/01/28 10:45:12;;;;;;;15.43;6.70;;;4.00;99.90;;;;;;4992996;28;20183;-66
2022/01/28 10:47:48;;;;;;;11.67;6.70;;;4.40;99.90;;;;;;4975628;28;20212;-60
2022/01/28 10:50:25;;;;;;;8.87;5.57;;;4.60;99.90;;;;;;4975624;28;20275;-59
2022/01/28 10:53:20;;;;;;;13.23;6.80;;;4.70;99.90;;;;;;4992931;28;20195;-55
2022/01/28 10:55:57;;;;;;;10.10;6.23;;;4.70;99.90;;;;;;4975733;28;20273;-58
2022/01/28 10:58:28;;;;;;;8.67;4.83;;;4.90;99.90;;;;;;4993195;28;20589;-59
2022/01/28 11:00:57;;;;;;;7.00;4.60;;;4.90;99.90;;;;;;4992834;28;20199;-59
2022/01/28 11:03:27;;;;;;;8.73;4.80;;;5.10;99.90;;;;;;4975874;28;20181;-58
2022/01/28 11:05:58;;;;;;;8.97;4.90;;;4.90;99.90;;;;;;4975944;28;20179;-56
2022/01/28 11:08:34;;;;;;;11.13;5.07;;;4.90;99.90;;;;;;4993038;28;20218;-57
2022/01/28 11:11:02;;;;;;;6.03;3.90;;;4.70;99.90;;;;;;4971103;28;20193;-60
2022/01/28 11:13:28;;;;;;;9.27;4.67;;;4.60;99.90;;;;;;4981137;28;20182;-59
2022/01/28 11:15:54;;;;;;;9.53;4.63;;;4.50;99.90;;;;;;5012342;28;20189;-57
2022/01/28 11:18:20;;;;;;;8.17;4.30;;;4.30;99.90;;;;;;5012276;28;20196;-57
2022/01/28 11:20:54;;;;;;;8.07;4.67;;;4.30;99.90;;;;;;5012230;28;20196;-56
2022/01/28 11:23:35;;;;;;;7.03;4.10;;;4.20;99.90;;;;;;5012578;28;20250;-60
2022/01/28 11:26:22;;;;;;;8.03;4.70;;;4.20;99.90;;;;;;4994627;28;20183;-58
2022/01/28 11:28:51;;;;;;;7.10;3.53;;;4.10;99.90;;;;;;4994493;28;20279;-58
2022/01/28 11:31:40;;;;;;;7.93;3.37;;;4.20;99.90;;;;;;4995220;28;20587;-58
2022/01/28 11:34:18;;;;;;;9.17;4.40;;;4.30;99.90;;;;;;5012074;28;20280;-58
2022/01/28 11:36:44;;;;;;;8.30;4.30;;;4.40;99.90;;;;;;5012466;28;20660;-60
2022/01/28 11:39:42;;;;;;;9.37;4.13;;;4.40;99.90;;;;;;4995232;28;20197;-58
2022/01/28 11:42:14;;;;;;;9.37;4.93;;;4.40;99.90;;;;;;4961044;28;20312;-59
2022/01/28 11:44:57;;;;;;;7.23;3.90;;;4.50;99.90;;;;;;4993506;28;20334;-60
2022/01/28 11:47:34;;;;;;;9.07;3.33;;;4.70;99.90;;;;;;4993610;28;20574;-58
2022/01/28 11:50:12;;;;;;;9.23;4.03;;;4.80;99.90;;;;;;4992547;28;20224;-61
2022/01/28 11:52:50;;;;;;;12.90;3.73;;;5.10;99.90;;;;;;4992557;28;20361;-59
2022/01/28 11:55:25;;;;;;;13.97;4.17;;;5.30;99.90;;;;;;4992477;28;20259;-57
2022/01/28 11:58:07;;;;;;;7.53;3.50;;;5.30;99.90;;;;;;4992718;28;20193;-59
2022/01/28 12:00:44;;;;;;;12.50;3.87;;;5.40;99.90;;;;;;4974854;28;20188;-60
2022/01/28 12:03:29;;;;;;;12.87;3.27;;;5.40;99.90;;;;;;4992028;28;20640;-60
2022/01/28 12:05:57;;;;;;;5.63;2.90;;;5.60;99.90;;;;;;4974319;28;20625;-58
2022/01/28 12:08:30;;;;;;;9.17;2.87;;;5.70;99.50;;;;;;4992368;28;20353;-59
2022/01/28 12:10:57;;;;;;;10.20;2.80;;;5.80;99.10;;;;;;4991999;28;20223;-59
2022/01/28 12:14:03;;;;;;;14.47;2.80;;;5.90;99.20;;;;;;4979558;28;20183;-58
2022/01/28 12:16:33;;;;;;;15.17;2.83;;;6.10;98.60;;;;;;5011084;28;20651;-58
2022/01/28 12:19:01;;;;;;;6.03;2.13;;;6.20;98.20;;;;;;5011497;28;20180;-58
2022/01/28 12:21:31;;;;;;;4.23;2.00;;;6.20;97.70;;;;;;5011472;28;20215;-60
2022/01/28 12:24:18;;;;;;;4.27;1.67;;;6.30;97.70;;;;;;5011690;28;20191;-61
2022/01/28 12:27:05;;;;;;;5.70;1.73;;;6.20;96.90;;;;;;4994095;28;20222;-58
2022/01/28 12:29:33;;;;;;;3.83;1.37;;;6.90;96.70;;;;;;5006870;28;20291;-58
2022/01/28 12:32:00;;;;;;;5.50;1.70;;;8.20;94.20;;;;;;5011337;28;20188;-58
2022/01/28 12:34:27;;;;;;;3.97;2.03;;;9.50;92.40;;;;;;5011404;28;20296;-60
2022/01/28 12:36:57;;;;;;;14.57;2.27;;;9.90;90.00;;;;;;4993082;28;20672;-60
2022/01/28 12:44:55;;;;;;;5.57;1.80;;;9.80;83.80;;;;;;4991920;28;20200;-65
2022/01/28 12:47:22;;;;;;;4.83;1.60;;;10.20;83.90;;;;;;4991505;28;20215;-59
2022/01/28 12:49:55;;;;;;;3.83;1.50;;;10.80;80.40;;;;;;4991675;28;20254;-64
2022/01/28 12:52:20;;;;;;;5.75;1.50;;;10.60;78.30;;;;;;4991556;28;20972;-57
2022/01/28 12:54:47;;;;;;;6.47;1.80;;;9.90;79.70;;;;;;4990322;28;20240;-58
2022/01/28 12:57:15;;;;;;;6.83;2.30;;;9.50;81.90;;;;;;4992139;28;20187;-62
2022/01/28 12:59:45;;;;;;;7.80;1.57;;;8.60;83.40;;;;;;4991265;28;20211;-57
2022/01/28 13:02:11;;;;;;;2.23;1.30;;;7.50;86.40;;;;;;4991053;28;20208;-58
2022/01/28 13:10:22;;;;;;;7.73;2.20;;;6.60;90.20;;;;;;4991265;28;20198;-58
2022/01/28 13:12:48;;;;;;;4.83;1.60;;;6.70;90.60;;;;;;4991025;28;20250;-62
2022/01/28 13:15:15;;;;;;;7.70;1.73;;;6.80;90.60;;;;;;4991634;28;20203;-58
2022/01/28 13:17:54;;;;;;;6.03;2.00;;;7.00;90.40;;;;;;4991906;28;20199;-54
2022/01/28 13:20:20;;;;;;;4.23;2.13;;;7.00;90.30;;;;;;4991022;28;20191;-57
2022/01/28 13:22:51;;;;;;;6.83;2.70;;;6.90;90.80;;;;;;4990840;28;20279;-55
2022/01/28 13:25:23;;;;;;;10.70;2.90;;;6.80;90.50;;;;;;4990809;28;20184;-58
2022/01/28 13:27:54;;;;;;;7.47;3.33;;;6.70;90.70;;;;;;4991152;28;20212;-63
2022/01/28 13:30:21;;;;;;;6.40;2.80;;;6.60;90.90;;;;;;4991368;28;20207;-59
2022/01/28 13:32:50;;;;;;;16.60;3.70;;;6.40;91.60;;;;;;4990873;28;20542;-64
2022/01/28 13:35:22;;;;;;;6.33;3.03;;;6.20;91.80;;;;;;4991401;28;20522;-58
2022/01/28 13:37:50;;;;;;;13.43;3.70;;;6.00;92.00;;;;;;4993974;28;20520;-59
2022/01/28 13:40:26;;;;;;;11.00;3.53;;;5.90;92.40;;;;;;5004233;28;20192;-57
2022/01/28 13:43:10;;;;;;;12.20;4.10;;;5.90;92.80;;;;;;4997978;28;20275;-58
2022/01/28 13:45:40;;;;;;;5.63;2.33;;;6.00;92.90;;;;;;5000236;28;20199;-53
2022/01/28 13:48:18;;;;;;;8.67;3.47;;;5.80;92.70;;;;;;5001644;28;20671;-57
2022/01/28 13:50:49;;;;;;;9.63;3.73;;;5.70;93.60;;;;;;4992368;28;20653;-60
2022/01/28 13:56:03;;;;;;;11.50;3.53;;;5.90;93.90;;;;;;4997060;28;20227;-58
2022/01/28 13:58:41;;;;;;;6.27;3.03;;;6.10;93.40;;;;;;4989091;28;20211;-57
2022/01/28 14:01:10;;;;;;;4.20;2.37;;;6.10;93.20;;;;;;4989638;28;20650;-55
2022/01/28 14:03:54;;;;;;;3.63;2.30;;;6.20;92.90;;;;;;4989437;28;20192;-57
2022/01/28 14:06:24;;;;;;;6.03;2.00;;;6.20;92.90;;;;;;4986869;28;20640;-58
2022/01/28 14:08:53;;;;;;;4.20;2.20;;;6.10;93.00;;;;;;4982488;28;20257;-59
2022/01/28 14:11:48;;;;;;;10.47;2.97;;;6.00;93.00;;;;;;4994882;28;20198;-59
2022/01/28 14:14:24;;;;;;;5.43;2.27;;;6.20;93.40;;;;;;5000840;28;20249;-60
2022/01/28 14:16:56;;;;;;;5.73;2.33;;;6.10;93.30;;;;;;5010243;28;20187;-57
2022/01/28 14:19:24;;;;;;;5.10;2.33;;;5.80;93.50;;;;;;5014330;28;20175;-57
2022/01/28 14:21:51;;;;;;;7.37;2.60;;;5.60;94.10;;;;;;5013265;28;20612;-57
2022/01/28 14:24:20;;;;;;;10.53;3.33;;;5.50;94.40;;;;;;5013631;28;20491;-59
2022/01/28 14:26:57;;;;;;;6.13;3.40;;;5.70;94.60;;;;;;5013495;28;20469;-58
2022/01/28 14:29:36;;;;;;;9.27;3.50;;;5.70;94.40;;;;;;5013528;28;20186;-58
2022/01/28 14:32:10;;;;;;;7.70;3.70;;;5.50;94.70;;;;;;5013482;28;20258;-55
2022/01/28 14:34:37;;;;;;;9.63;4.07;;;5.30;95.20;;;;;;5014023;28;20264;-56
2022/01/28 14:37:04;;;;;;;11.93;4.53;;;5.10;95.70;;;;;;5013566;28;20222;-58
2022/01/28 14:39:35;;;;;;;7.30;3.90;;;5.00;96.50;;;;;;5013936;28;20629;-57
2022/01/28 14:42:03;;;;;;;6.17;3.60;;;4.90;96.90;;;;;;4993756;28;20186;-59
2022/01/28 14:44:30;;;;;;;12.80;5.03;;;4.70;97.30;;;;;;4994284;28;20279;-57
2022/01/28 14:46:56;;;;;;;17.63;6.37;;;4.70;98.00;;;;;;4993568;28;20225;-58